createdAt,value
2018-12-12T05:46:25.268Z,28.90
2018-12-12T05:48:53.914Z,26.30
2018-12-12T05:51:22.582Z,31.33
2018-12-12T05:53:51.058Z,31.47
2018-12-12T05:56:19.633Z,29.10
2018-12-12T05:58:48.338Z,26.13
2018-12-12T06:01:17.053Z,30.33
2018-12-12T06:03:46.008Z,28.63
2018-12-12T06:06:14.722Z,30.57
2018-12-12T06:08:43.413Z,28.57
2018-12-12T06:11:12.365Z,29.23
2018-12-12T06:13:41.094Z,27.00
2018-12-12T06:16:09.564Z,31.90
2018-12-12T06:18:38.441Z,32.70
2018-12-12T06:21:07.133Z,32.70
2018-12-12T06:23:36.768Z,32.23
2018-12-12T06:26:05.739Z,32.80
2018-12-12T06:28:34.720Z,32.30
2018-12-12T06:31:03.758Z,29.37
2018-12-12T06:33:32.158Z,27.47
2018-12-12T06:36:01.101Z,30.50
2018-12-12T06:38:29.471Z,28.70
2018-12-12T06:40:58.686Z,30.73
2018-12-12T06:43:27.263Z,29.93
2018-12-12T06:45:56.137Z,27.43
2018-12-12T06:48:24.563Z,28.73
2018-12-12T06:50:53.730Z,30.30
2018-12-12T06:53:22.531Z,30.00
2018-12-12T06:55:51.339Z,32.37
2018-12-12T06:58:19.965Z,29.17
2018-12-12T07:00:49.316Z,29.03
2018-12-12T07:03:17.911Z,29.67
2018-12-12T07:05:46.570Z,32.63
2018-12-12T07:08:15.278Z,29.10
2018-12-12T07:10:44.803Z,31.13
2018-12-12T07:13:13.533Z,32.67
2018-12-12T07:15:42.266Z,28.00
2018-12-12T07:18:11.238Z,29.77
2018-12-12T07:20:40.014Z,28.47
2018-12-12T07:23:08.710Z,27.73
2018-12-12T07:25:37.169Z,29.73
2018-12-12T07:28:05.653Z,30.80
2018-12-12T07:30:34.409Z,30.30
2018-12-12T07:33:03.534Z,32.77
2018-12-12T07:35:32.165Z,30.40
2018-12-12T07:38:01.312Z,29.47
2018-12-12T07:40:29.868Z,28.50
2018-12-12T07:42:58.676Z,32.97
2018-12-12T07:45:27.754Z,35.23
2018-12-12T07:48:01.421Z,37.20
2018-12-12T07:50:27.179Z,35.07
2018-12-12T07:52:55.576Z,35.77
2018-12-12T07:55:23.957Z,36.33
2018-12-12T07:57:52.975Z,34.30
2018-12-12T08:00:21.704Z,30.97
2018-12-12T08:02:50.883Z,31.90
2018-12-12T08:05:19.631Z,37.50
2018-12-12T08:07:48.355Z,34.50
2018-12-12T08:10:18.059Z,34.47
2018-12-12T08:12:47.160Z,34.60
2018-12-12T08:15:15.610Z,33.63
2018-12-12T08:17:44.054Z,35.90
2018-12-12T08:20:13.569Z,32.30
2018-12-12T08:22:42.848Z,34.97
2018-12-12T08:25:13.066Z,32.20
2018-12-12T08:27:41.438Z,33.83
2018-12-12T08:30:09.953Z,33.70
2018-12-12T08:32:38.530Z,35.17
2018-12-12T08:35:07.228Z,37.73
2018-12-12T08:37:35.950Z,34.43
2018-12-12T08:40:04.969Z,34.00
2018-12-12T08:42:36.954Z,32.83
2018-12-12T08:45:06.128Z,32.50
2018-12-12T08:47:34.950Z,33.20
2018-12-12T08:50:04.052Z,30.20
2018-12-12T08:52:32.676Z,33.53
2018-12-12T08:55:01.519Z,32.90
2018-12-12T08:57:30.292Z,29.77
2018-12-12T08:59:59.167Z,33.57
2018-12-12T09:02:27.885Z,34.43
2018-12-12T09:04:56.948Z,36.20
2018-12-12T09:07:25.368Z,38.27
2018-12-12T09:09:54.095Z,35.03
2018-12-12T09:12:23.027Z,36.17
2018-12-12T09:14:51.852Z,35.47
2018-12-12T09:17:20.671Z,41.90
2018-12-12T09:19:49.694Z,31.80
2018-12-12T09:22:18.092Z,37.17
2018-12-12T09:24:47.313Z,34.70
2018-12-12T09:27:16.155Z,32.77
2018-12-12T09:29:44.826Z,32.30
2018-12-12T09:32:13.873Z,36.93
2018-12-12T09:34:43.044Z,33.13
2018-12-12T09:37:11.766Z,37.07
2018-12-12T09:39:40.468Z,29.67
2018-12-12T09:42:09.125Z,33.87
2018-12-12T09:44:37.848Z,37.03
2018-12-12T09:47:06.471Z,36.23
2018-12-12T09:49:35.122Z,34.03
2018-12-12T09:52:04.074Z,31.43
2018-12-12T09:54:32.820Z,31.20
2018-12-12T09:57:01.222Z,27.90
2018-12-12T09:59:29.813Z,33.87
2018-12-12T10:01:58.275Z,32.57
2018-12-12T10:04:27.272Z,32.73
2018-12-12T10:06:55.962Z,36.00
2018-12-12T10:09:25.290Z,30.83
2018-12-12T10:11:53.757Z,35.37
2018-12-12T10:14:22.351Z,33.50
2018-12-12T10:16:51.283Z,38.33
2018-12-12T10:19:20.343Z,35.97
2018-12-12T10:21:49.318Z,28.93
2018-12-12T10:24:18.915Z,29.93
2018-12-12T10:26:47.666Z,34.23
2018-12-12T10:29:16.403Z,32.63
2018-12-12T10:31:44.994Z,34.40
2018-12-12T10:34:13.936Z,34.00
2018-12-12T10:36:42.372Z,32.73
2018-12-12T10:39:11.536Z,31.73
2018-12-12T10:41:40.627Z,30.83
2018-12-12T10:44:09.609Z,32.40
2018-12-12T10:46:38.636Z,33.23
2018-12-12T10:49:07.375Z,33.73
2018-12-12T10:51:36.037Z,31.40
2018-12-12T10:54:05.033Z,33.47
2018-12-12T10:56:33.701Z,37.30
2018-12-12T10:59:02.108Z,37.20
2018-12-12T11:01:35.290Z,31.50
2018-12-12T11:04:04.186Z,34.10
2018-12-12T11:06:32.879Z,39.20
2018-12-12T11:09:02.016Z,37.93
2018-12-12T11:11:31.434Z,34.23
2018-12-12T11:14:00.122Z,37.93
2018-12-12T11:16:29.017Z,35.50
2018-12-12T11:18:58.159Z,32.67
2018-12-12T11:21:26.893Z,35.80
2018-12-12T11:23:55.448Z,36.07
2018-12-12T11:26:24.366Z,35.80
2018-12-12T11:28:53.337Z,31.47
2018-12-12T11:31:22.643Z,35.20
2018-12-12T11:33:51.617Z,35.43
2018-12-12T11:36:20.861Z,32.77
2018-12-12T11:38:49.639Z,36.30
2018-12-12T11:41:18.274Z,34.20
2018-12-12T11:43:47.016Z,35.87
2018-12-12T11:46:16.317Z,33.97
2018-12-12T11:48:44.955Z,35.73
2018-12-12T11:51:13.447Z,34.40
2018-12-12T11:53:42.217Z,32.27
2018-12-12T11:56:11.387Z,31.43
2018-12-12T11:58:39.777Z,33.53
2018-12-12T12:01:08.679Z,31.87
2018-12-12T12:03:37.702Z,40.77
2018-12-12T12:06:06.185Z,33.90
2018-12-12T12:08:34.600Z,38.53
2018-12-12T12:11:03.017Z,33.77
2018-12-12T12:13:31.738Z,36.80
2018-12-12T12:16:00.128Z,35.47
2018-12-12T12:18:29.168Z,32.60
2018-12-12T12:20:58.008Z,34.77
2018-12-12T12:23:26.601Z,34.97
2018-12-12T12:25:56.430Z,37.93
2018-12-12T12:28:24.880Z,35.53
2018-12-12T12:30:53.308Z,39.77
2018-12-12T12:33:21.925Z,39.70
2018-12-12T12:35:50.594Z,40.40
2018-12-12T12:38:19.987Z,42.60
2018-12-12T12:40:48.470Z,33.57
2018-12-12T12:43:17.341Z,36.17
2018-12-12T12:45:46.114Z,35.20
2018-12-12T12:48:14.951Z,38.40
2018-12-12T12:50:44.156Z,36.70
2018-12-12T12:53:13.499Z,34.10
2018-12-12T12:55:41.888Z,34.53
2018-12-12T12:58:10.410Z,38.57
2018-12-12T13:00:39.415Z,37.50
2018-12-12T13:03:08.967Z,38.73
2018-12-12T13:05:37.625Z,36.23
2018-12-12T13:08:06.566Z,34.83
2018-12-12T13:10:35.833Z,33.30
2018-12-12T13:13:04.643Z,35.73
2018-12-12T13:15:34.873Z,31.63
2018-12-12T13:18:03.700Z,36.53
2018-12-12T13:20:32.215Z,35.73
2018-12-12T13:23:00.694Z,42.57
2018-12-12T13:25:30.458Z,33.13
2018-12-12T13:27:59.764Z,33.60
2018-12-12T13:30:28.548Z,64.73
2018-12-12T13:32:57.236Z,29.43
2018-12-12T13:35:26.017Z,32.47
2018-12-12T13:37:54.804Z,31.77
2018-12-12T13:40:23.536Z,32.47
2018-12-12T13:42:51.983Z,31.33
2018-12-12T13:45:20.873Z,28.77
2018-12-12T13:47:49.662Z,30.50
2018-12-12T13:50:18.397Z,33.03
2018-12-12T13:52:47.278Z,32.63
2018-12-12T13:55:16.187Z,31.60
2018-12-12T13:57:44.605Z,31.93
2018-12-12T14:00:13.450Z,29.77
2018-12-12T14:02:42.249Z,31.30
2018-12-12T14:05:10.755Z,32.17
2018-12-12T14:07:39.345Z,30.40
2018-12-12T14:10:08.371Z,31.47
2018-12-12T14:12:37.345Z,31.93
2018-12-12T14:15:06.522Z,31.03
2018-12-12T14:17:35.011Z,30.67
2018-12-12T14:20:03.536Z,30.80
2018-12-12T14:22:32.364Z,30.70
2018-12-12T14:25:01.676Z,30.00
2018-12-12T14:27:30.283Z,32.20
2018-12-12T14:29:59.114Z,29.80
2018-12-12T14:32:27.718Z,29.53
2018-12-12T14:34:57.509Z,31.27
2018-12-12T14:37:26.414Z,32.37
2018-12-12T14:39:55.381Z,26.87
2018-12-12T14:42:23.986Z,29.80
2018-12-12T14:44:52.543Z,30.10
2018-12-12T14:47:20.900Z,28.60
2018-12-12T14:49:49.754Z,30.03
2018-12-12T14:52:18.511Z,28.80
2018-12-12T14:54:47.136Z,29.47
2018-12-12T14:57:16.943Z,33.03
2018-12-12T14:59:45.664Z,30.90
2018-12-12T15:02:14.914Z,37.77
2018-12-12T15:04:43.758Z,29.67
2018-12-12T15:07:12.887Z,29.07
2018-12-12T15:09:41.433Z,30.43
2018-12-12T15:12:10.168Z,27.77
2018-12-12T15:14:38.773Z,29.10
2018-12-12T15:17:07.178Z,29.20
2018-12-12T15:19:36.511Z,28.37
2018-12-12T15:22:05.198Z,28.60
2018-12-12T15:24:35.522Z,26.63
2018-12-12T15:27:04.839Z,29.20
2018-12-12T15:29:33.401Z,28.80
2018-12-12T15:32:01.835Z,28.67
2018-12-12T15:34:30.723Z,31.50
2018-12-12T15:36:59.375Z,31.30
2018-12-12T15:39:28.279Z,27.97
2018-12-12T15:41:56.804Z,32.17
2018-12-12T15:44:26.519Z,37.53
2018-12-12T15:46:55.123Z,21.63
2018-12-12T15:49:24.067Z,20.37
2018-12-12T15:51:52.743Z,13.53
2018-12-12T15:54:21.263Z,12.00
2018-12-12T15:56:49.875Z,10.97
2018-12-12T15:59:18.817Z,11.23
2018-12-12T16:01:48.093Z,8.57
2018-12-12T16:04:17.491Z,7.90
2018-12-12T16:06:46.739Z,7.03
2018-12-12T16:09:15.166Z,8.20
2018-12-12T16:11:43.857Z,10.30
2018-12-12T16:14:15.428Z,11.33
2018-12-12T16:16:44.369Z,11.20
2018-12-12T16:19:13.510Z,11.47
2018-12-12T16:21:43.236Z,10.63
2018-12-12T16:24:11.806Z,10.37
2018-12-12T16:26:40.845Z,10.37
2018-12-12T16:29:09.800Z,10.20
2018-12-12T16:31:38.548Z,11.70
2018-12-12T16:34:07.517Z,14.90
2018-12-12T16:36:36.534Z,12.00
2018-12-12T16:39:07.848Z,11.87
2018-12-12T16:41:36.848Z,10.53
2018-12-12T16:44:05.612Z,11.83
2018-12-12T16:46:34.321Z,11.33
2018-12-12T16:49:02.785Z,14.40
2018-12-12T16:51:31.876Z,11.67
2018-12-12T16:54:00.340Z,11.03
2018-12-12T16:56:28.814Z,10.03
2018-12-12T16:58:57.449Z,11.20
2018-12-12T17:01:26.443Z,12.75
2018-12-12T17:03:55.496Z,11.40
2018-12-12T17:06:24.287Z,10.57
2018-12-12T17:08:52.869Z,11.57
2018-12-12T17:11:21.712Z,10.50
2018-12-12T17:13:50.322Z,11.50
2018-12-12T17:16:19.123Z,11.90
2018-12-12T17:18:48.714Z,12.27
2018-12-12T17:21:17.304Z,11.00
2018-12-12T17:23:46.332Z,11.63
2018-12-12T17:26:14.952Z,11.63
2018-12-12T17:28:43.368Z,14.30
2018-12-12T17:31:11.914Z,11.83
2018-12-12T17:33:40.297Z,12.63
2018-12-12T17:36:09.223Z,14.13
2018-12-12T17:38:38.201Z,15.13
2018-12-12T17:41:07.561Z,13.07
2018-12-12T17:43:36.671Z,14.93
2018-12-12T17:46:05.548Z,12.70
2018-12-12T17:48:33.995Z,11.87
2018-12-12T17:51:02.579Z,12.43
2018-12-12T17:53:31.025Z,14.60
2018-12-12T17:55:59.443Z,12.87
2018-12-12T17:58:28.037Z,13.57
2018-12-12T18:00:56.809Z,14.43
2018-12-12T18:03:25.658Z,13.40
2018-12-12T18:05:54.159Z,14.47
2018-12-12T18:08:23.068Z,14.10
2018-12-12T18:10:51.484Z,14.97
2018-12-12T18:13:20.425Z,15.23
2018-12-12T18:15:49.273Z,15.53
2018-12-12T18:18:17.949Z,14.73
2018-12-12T18:20:46.350Z,18.40
2018-12-12T18:23:17.920Z,19.47
2018-12-12T18:25:46.911Z,19.27
2018-12-12T18:28:15.616Z,18.77
2018-12-12T18:30:44.426Z,33.93
2018-12-12T18:33:12.923Z,41.40
2018-12-12T18:35:41.722Z,30.60
2018-12-12T18:38:11.062Z,26.40
2018-12-12T18:40:39.685Z,21.80
2018-12-12T18:43:08.655Z,17.97
2018-12-12T18:45:37.107Z,18.93
2018-12-12T18:48:06.374Z,17.40
2018-12-12T18:50:35.011Z,25.03
2018-12-12T18:53:04.697Z,23.40
2018-12-12T18:55:33.167Z,26.53
2018-12-12T18:58:01.579Z,21.70
2018-12-12T19:00:30.148Z,26.33
2018-12-12T19:02:59.174Z,43.07
2018-12-12T19:05:28.403Z,34.23
2018-12-12T19:07:57.119Z,26.23
2018-12-12T19:10:26.026Z,29.10
2018-12-12T19:12:55.175Z,34.87
2018-12-12T19:15:24.043Z,31.03
2018-12-12T19:17:52.677Z,34.57
2018-12-12T19:20:21.411Z,32.87
2018-12-12T19:22:49.910Z,30.97
2018-12-12T19:25:18.794Z,26.00
2018-12-12T19:27:48.379Z,23.73
2018-12-12T19:30:16.858Z,19.47
2018-12-12T19:32:45.674Z,19.57
2018-12-12T19:35:15.021Z,18.33
2018-12-12T19:37:44.037Z,23.63
2018-12-12T19:40:12.922Z,19.07
2018-12-12T19:42:42.008Z,18.33
2018-12-12T19:45:11.141Z,18.90
2018-12-12T19:47:39.612Z,18.50
2018-12-12T19:50:08.730Z,18.20
2018-12-12T19:52:37.788Z,17.93
2018-12-12T19:55:06.375Z,19.97
2018-12-12T19:57:35.098Z,16.97
2018-12-12T20:00:04.449Z,17.47
2018-12-12T20:02:33.380Z,18.50
2018-12-12T20:05:02.343Z,21.07
2018-12-12T20:07:31.319Z,16.57
2018-12-12T20:09:59.789Z,20.37
2018-12-12T20:12:28.681Z,19.77
2018-12-12T20:14:57.282Z,20.33
2018-12-12T20:17:26.102Z,23.90
2018-12-12T20:19:54.547Z,21.07
2018-12-12T20:22:23.138Z,20.70
2018-12-12T20:24:51.810Z,22.60
